Time;durP1;ratioP1;P1;durP2;ratioP2;P2;SDS_P1;SDS_P2;PMS_P1;PMS_P2;Temp;Humidity;BMP_temperature;BMP_pressure;BME280_temperature;BME280_humidity;BME280_pressure;Samples;Min_cycle;Max_cycle;Signal;HPM_P1;HPM_P2
2022/01/02 00:01:58;;;;;;;3.53;2.20;;;12.40;99.90;;;;;;5058045;28;20439;-70
2022/01/02 00:04:36;;;;;;;2.80;2.40;;;12.40;99.90;;;;;;5058286;28;20412;-70
2022/01/02 00:07:06;;;;;;;4.10;2.73;;;12.40;99.90;;;;;;5058821;28;20538;-71
2022/01/02 00:09:36;;;;;;;4.50;2.30;;;12.40;99.90;;;;;;5061934;28;21111;-71
2022/01/02 00:12:07;;;;;;;3.90;2.70;;;12.40;99.90;;;;;;5062167;28;20522;-70
2022/01/02 00:14:37;;;;;;;3.80;2.30;;;12.50;99.90;;;;;;5062370;28;20524;-70
2022/01/02 00:17:07;;;;;;;8.63;3.40;;;12.50;99.90;;;;;;5062252;28;21216;-69
2022/01/02 00:19:39;;;;;;;3.70;2.40;;;12.50;99.90;;;;;;5061999;28;20471;-70
2022/01/02 00:22:14;;;;;;;3.03;2.27;;;12.50;99.90;;;;;;5061597;28;20436;-72
2022/01/02 00:24:44;;;;;;;2.90;2.67;;;12.50;99.90;;;;;;5061207;28;20537;-71
2022/01/02 00:27:14;;;;;;;2.93;2.63;;;12.50;99.90;;;;;;5061530;28;20609;-70
2022/01/02 00:29:43;;;;;;;5.80;2.80;;;12.50;99.90;;;;;;5061792;28;20866;-71
2022/01/02 00:32:12;;;;;;;2.77;2.50;;;12.50;99.90;;;;;;5061642;28;20435;-70
2022/01/02 00:34:41;;;;;;;3.60;3.13;;;12.40;99.90;;;;;;5061512;28;20700;-72
2022/01/02 00:37:09;;;;;;;7.03;2.03;;;12.40;99.90;;;;;;5061889;28;20550;-70
2022/01/02 00:39:38;;;;;;;3.13;2.90;;;12.40;99.90;;;;;;5062114;28;20988;-70
2022/01/02 00:42:11;;;;;;;4.90;2.67;;;12.50;99.90;;;;;;5061335;28;20738;-70
2022/01/02 00:44:58;;;;;;;3.43;2.37;;;12.50;99.90;;;;;;5060432;28;20514;-71
2022/01/02 00:47:32;;;;;;;3.43;3.17;;;12.60;99.90;;;;;;5060999;28;20767;-70
2022/01/02 00:50:08;;;;;;;3.40;3.00;;;12.60;99.90;;;;;;5060685;28;20439;-71
2022/01/02 00:52:38;;;;;;;3.60;2.60;;;12.70;99.90;;;;;;5060756;28;20462;-70
2022/01/02 00:55:08;;;;;;;3.47;3.17;;;12.70;99.90;;;;;;5061324;28;20522;-73
2022/01/02 00:57:38;;;;;;;4.20;3.00;;;12.70;99.90;;;;;;5061368;28;20460;-71
2022/01/02 01:00:10;;;;;;;5.17;3.10;;;12.70;99.90;;;;;;5061368;28;20475;-72
2022/01/02 01:02:45;;;;;;;3.23;2.73;;;12.60;99.90;;;;;;5060307;28;20471;-69
2022/01/02 01:05:19;;;;;;;3.57;3.27;;;12.60;99.90;;;;;;5060812;28;20519;-72
2022/01/02 01:07:49;;;;;;;3.63;3.33;;;12.60;99.90;;;;;;5061217;28;20534;-71
2022/01/02 01:10:18;;;;;;;4.07;2.93;;;12.60;99.90;;;;;;5059818;28;21183;-72
2022/01/02 01:12:49;;;;;;;2.73;2.53;;;12.50;99.90;;;;;;5060733;28;20847;-69
2022/01/02 01:15:17;;;;;;;3.20;3.00;;;12.60;99.90;;;;;;5060692;28;20517;-69
2022/01/02 01:17:46;;;;;;;9.37;2.90;;;12.50;99.90;;;;;;5060493;28;20471;-69
2022/01/02 01:20:14;;;;;;;5.87;4.60;;;12.50;99.90;;;;;;5059836;28;20474;-68
2022/01/02 01:22:44;;;;;;;4.17;2.80;;;12.50;99.90;;;;;;5060469;28;20526;-68
2022/01/02 01:25:16;;;;;;;6.97;3.47;;;12.50;99.90;;;;;;5060245;28;20490;-68
2022/01/02 01:27:45;;;;;;;4.93;3.40;;;12.50;99.90;;;;;;5060282;28;20698;-71
2022/01/02 01:30:14;;;;;;;2.93;2.60;;;12.50;99.90;;;;;;5060217;28;20535;-70
2022/01/02 01:32:42;;;;;;;2.83;2.63;;;12.50;99.90;;;;;;5060003;28;20451;-69
2022/01/02 01:35:12;;;;;;;5.20;2.93;;;12.50;99.90;;;;;;5059525;28;21014;-69
2022/01/02 01:37:41;;;;;;;4.97;3.30;;;12.50;99.90;;;;;;5060218;28;20446;-70
2022/01/02 01:40:17;;;;;;;4.30;3.30;;;12.50;99.90;;;;;;5059951;28;21078;-74
2022/01/02 01:42:56;;;;;;;3.20;3.00;;;12.50;99.90;;;;;;5059875;28;20542;-70
2022/01/02 01:45:31;;;;;;;3.90;3.60;;;12.50;99.90;;;;;;5059838;28;20542;-71
2022/01/02 01:48:02;;;;;;;4.43;4.03;;;12.40;99.90;;;;;;5060035;28;20528;-72
2022/01/02 01:50:32;;;;;;;5.40;3.77;;;12.40;99.90;;;;;;5059946;28;20463;-71
2022/01/02 01:53:01;;;;;;;3.57;3.27;;;12.30;99.90;;;;;;5059540;28;20427;-71
2022/01/02 01:55:33;;;;;;;6.37;3.80;;;12.30;99.90;;;;;;5059433;28;20462;-72
2022/01/02 01:58:02;;;;;;;5.27;3.23;;;12.30;99.90;;;;;;5059522;28;20642;-71
2022/01/02 02:00:33;;;;;;;6.63;3.60;;;12.30;99.90;;;;;;5059922;28;21118;-70
2022/01/02 02:03:03;;;;;;;5.60;3.60;;;12.30;99.90;;;;;;5059243;28;21262;-69
2022/01/02 02:05:31;;;;;;;6.40;4.00;;;12.30;99.90;;;;;;5059561;28;20471;-70
2022/01/02 02:07:59;;;;;;;4.13;3.80;;;12.30;99.90;;;;;;5060023;28;21138;-72
2022/01/02 02:10:33;;;;;;;5.50;3.87;;;12.30;99.90;;;;;;5060680;28;20446;-72
2022/01/02 02:13:05;;;;;;;5.20;3.50;;;12.30;99.90;;;;;;5059683;28;20434;-71
2022/01/02 02:15:34;;;;;;;5.43;4.37;;;12.30;99.90;;;;;;5060028;28;20554;-69
2022/01/02 02:18:02;;;;;;;4.77;3.60;;;12.20;99.90;;;;;;5061372;28;20542;-72
2022/01/02 02:20:32;;;;;;;4.50;3.80;;;12.10;99.90;;;;;;5066836;28;20547;-69
2022/01/02 02:23:01;;;;;;;12.03;5.63;;;12.10;99.90;;;;;;5062659;28;20439;-69
2022/01/02 02:25:31;;;;;;;4.93;4.43;;;12.00;99.90;;;;;;5061838;28;20558;-72
2022/01/02 02:28:01;;;;;;;7.90;4.83;;;11.90;99.90;;;;;;5062040;28;20479;-70
2022/01/02 02:30:31;;;;;;;8.97;4.93;;;11.90;99.90;;;;;;5061028;28;20546;-72
2022/01/02 02:33:01;;;;;;;8.33;5.37;;;11.90;99.90;;;;;;5060676;28;20440;-71
2022/01/02 02:35:32;;;;;;;10.90;4.83;;;11.80;99.90;;;;;;5059639;28;20549;-71
2022/01/02 02:38:00;;;;;;;6.83;5.50;;;11.80;99.90;;;;;;5059751;28;20524;-70
2022/01/02 02:40:30;;;;;;;12.70;6.03;;;11.70;99.90;;;;;;5060473;28;20481;-70
2022/01/02 02:43:02;;;;;;;12.43;5.60;;;11.70;99.90;;;;;;5068005;28;20500;-70
2022/01/02 02:51:08;;;;;;;5.83;5.07;;;11.90;99.90;;;;;;5078377;28;20531;-70
2022/01/02 02:53:39;;;;;;;6.70;4.70;;;11.80;99.90;;;;;;5064219;28;20462;-69
2022/01/02 02:56:15;;;;;;;6.53;5.77;;;11.80;99.90;;;;;;5058766;28;20695;-71
2022/01/02 02:58:43;;;;;;;7.10;5.30;;;11.80;99.90;;;;;;5058546;28;20449;-70
2022/01/02 03:01:14;;;;;;;6.50;5.13;;;11.80;99.90;;;;;;5058177;28;21190;-70
2022/01/02 03:03:43;;;;;;;5.80;5.30;;;11.80;99.90;;;;;;5058378;28;20440;-69
2022/01/02 03:06:14;;;;;;;6.20;5.50;;;11.80;99.90;;;;;;5058601;28;21003;-70
2022/01/02 03:08:42;;;;;;;8.03;5.17;;;11.80;99.90;;;;;;5058746;28;20464;-70
2022/01/02 03:11:14;;;;;;;6.03;5.47;;;11.80;99.90;;;;;;5058873;28;20439;-70
2022/01/02 03:13:43;;;;;;;9.20;5.67;;;11.80;99.90;;;;;;5059095;28;20526;-70
2022/01/02 03:16:11;;;;;;;8.20;6.10;;;11.80;99.90;;;;;;5058751;28;20538;-71
2022/01/02 03:18:40;;;;;;;8.20;5.73;;;11.70;99.90;;;;;;5058295;28;20435;-70
2022/01/02 03:21:09;;;;;;;8.00;6.33;;;11.70;99.90;;;;;;5058278;28;20565;-71
2022/01/02 03:23:39;;;;;;;10.50;7.33;;;11.70;99.90;;;;;;5057799;28;20451;-70
2022/01/02 03:26:07;;;;;;;7.67;6.77;;;11.60;99.90;;;;;;5057347;28;21071;-70
2022/01/02 03:28:35;;;;;;;8.00;7.20;;;11.60;99.90;;;;;;5057966;28;20869;-70
2022/01/02 03:31:04;;;;;;;7.13;6.40;;;11.60;99.90;;;;;;5058022;28;20701;-70
2022/01/02 03:33:32;;;;;;;5.73;5.23;;;11.60;99.90;;;;;;5057399;28;20982;-71
2022/01/02 03:36:01;;;;;;;9.30;6.50;;;11.70;99.90;;;;;;5058073;28;20546;-70
2022/01/02 03:38:33;;;;;;;9.40;6.50;;;11.60;99.90;;;;;;5057530;28;20455;-70
2022/01/02 03:41:02;;;;;;;7.73;6.43;;;11.60;99.90;;;;;;5057788;28;21028;-71
2022/01/02 03:43:30;;;;;;;7.50;5.87;;;11.60;99.90;;;;;;5060042;28;20477;-70
2022/01/02 03:45:58;;;;;;;9.07;6.60;;;11.60;99.90;;;;;;5061803;28;20591;-70
2022/01/02 03:48:26;;;;;;;7.10;6.50;;;11.60;99.90;;;;;;5061479;28;20451;-71
2022/01/02 03:50:53;;;;;;;7.67;6.03;;;11.60;99.90;;;;;;5061706;28;20579;-69
2022/01/02 03:53:21;;;;;;;8.60;7.23;;;11.60;99.90;;;;;;5061714;28;20518;-70
2022/01/02 03:55:49;;;;;;;8.23;6.80;;;11.60;99.90;;;;;;5061626;28;21023;-71
2022/01/02 03:58:18;;;;;;;9.60;6.70;;;11.50;99.90;;;;;;5061609;28;20728;-70
2022/01/02 04:00:47;;;;;;;9.00;6.70;;;11.60;99.90;;;;;;5061613;28;20446;-71
2022/01/02 04:03:15;;;;;;;8.37;7.30;;;11.50;99.90;;;;;;5061353;28;20486;-70
2022/01/02 04:05:45;;;;;;;9.90;6.37;;;11.50;99.90;;;;;;5061022;28;20463;-69
2022/01/02 04:08:13;;;;;;;12.80;7.90;;;11.60;99.90;;;;;;5061579;28;20445;-70
2022/01/02 04:10:40;;;;;;;8.93;7.30;;;11.60;99.90;;;;;;5061646;28;20465;-70
2022/01/02 04:13:08;;;;;;;13.40;8.33;;;11.50;99.90;;;;;;5061375;28;20449;-71
2022/01/02 04:15:37;;;;;;;10.10;7.50;;;11.60;99.90;;;;;;5060859;28;20473;-70
2022/01/02 04:18:05;;;;;;;10.60;7.60;;;11.50;99.90;;;;;;5061225;28;20527;-71
2022/01/02 04:20:33;;;;;;;11.53;8.33;;;11.60;99.90;;;;;;5061449;28;20443;-70
2022/01/02 04:23:01;;;;;;;12.33;8.47;;;11.60;99.90;;;;;;5060810;28;21337;-72
2022/01/02 04:25:28;;;;;;;10.80;8.57;;;11.50;99.90;;;;;;5060743;28;20502;-72
2022/01/02 04:27:56;;;;;;;12.20;8.73;;;11.50;99.90;;;;;;5060889;28;20455;-72
2022/01/02 04:30:24;;;;;;;12.67;8.33;;;11.60;99.90;;;;;;5060939;28;21048;-71
2022/01/02 04:32:53;;;;;;;10.47;7.90;;;11.50;99.90;;;;;;5060825;28;20535;-73
2022/01/02 04:35:21;;;;;;;12.50;9.10;;;11.50;99.90;;;;;;5060544;28;20438;-72
2022/01/02 04:37:49;;;;;;;11.17;9.10;;;11.50;99.90;;;;;;5061192;28;20584;-72
2022/01/02 04:40:17;;;;;;;9.80;8.10;;;11.40;99.90;;;;;;5060570;28;20530;-72
2022/01/02 04:42:45;;;;;;;10.50;9.00;;;11.40;99.90;;;;;;5060164;28;20467;-72
2022/01/02 04:45:13;;;;;;;12.83;9.00;;;11.50;99.90;;;;;;5059690;28;20471;-73
2022/01/02 04:47:41;;;;;;;10.97;8.60;;;11.40;99.90;;;;;;5060793;28;20455;-71
2022/01/02 04:50:10;;;;;;;10.60;9.50;;;11.40;99.90;;;;;;5060437;28;21141;-71
2022/01/02 04:52:38;;;;;;;9.97;8.87;;;11.40;99.90;;;;;;5063626;28;20444;-70
2022/01/02 04:55:07;;;;;;;11.93;8.50;;;11.40;99.90;;;;;;5066535;28;20498;-70
2022/01/02 04:57:35;;;;;;;10.13;9.03;;;11.40;99.90;;;;;;5062511;28;20427;-69
2022/01/02 05:00:04;;;;;;;10.27;8.80;;;11.40;99.90;;;;;;5060374;28;20439;-70
2022/01/02 05:02:32;;;;;;;11.57;8.70;;;11.40;99.90;;;;;;5060578;28;20570;-69
2022/01/02 05:05:00;;;;;;;14.10;10.40;;;11.40;99.90;;;;;;5060629;28;20542;-70
2022/01/02 05:07:29;;;;;;;13.13;9.70;;;11.50;99.90;;;;;;5061463;28;20449;-71
2022/01/02 05:09:57;;;;;;;10.80;9.40;;;11.50;99.90;;;;;;5061545;28;20526;-71
2022/01/02 05:12:25;;;;;;;11.03;9.67;;;11.50;99.90;;;;;;5061367;28;20432;-70
2022/01/02 05:14:53;;;;;;;14.20;10.17;;;11.50;99.90;;;;;;5061451;28;20441;-70
2022/01/02 05:17:21;;;;;;;13.20;10.63;;;11.50;99.90;;;;;;5061707;28;20546;-71
2022/01/02 05:19:49;;;;;;;13.20;10.90;;;11.50;99.90;;;;;;5061496;28;20535;-70
2022/01/02 05:22:16;;;;;;;13.47;10.23;;;11.50;99.90;;;;;;5060270;28;21226;-71
2022/01/02 05:24:46;;;;;;;11.27;10.17;;;11.50;99.90;;;;;;5059522;28;20457;-70
2022/01/02 05:27:14;;;;;;;13.83;10.33;;;11.60;99.90;;;;;;5059878;28;20559;-69
2022/01/02 05:29:42;;;;;;;13.10;10.17;;;11.60;99.90;;;;;;5059723;28;21186;-70
2022/01/02 05:32:09;;;;;;;12.90;9.70;;;11.60;99.90;;;;;;5059432;28;20436;-69
2022/01/02 05:34:37;;;;;;;11.70;10.50;;;11.60;99.90;;;;;;5058747;28;20467;-69
2022/01/02 05:37:05;;;;;;;12.60;9.63;;;11.60;99.90;;;;;;5060494;28;20452;-69
2022/01/02 05:39:33;;;;;;;11.50;10.33;;;11.60;99.90;;;;;;5059477;28;20482;-70
2022/01/02 05:42:02;;;;;;;12.23;10.93;;;11.60;99.90;;;;;;5059027;28;20482;-69
2022/01/02 05:44:30;;;;;;;12.30;11.00;;;11.50;99.90;;;;;;5058822;28;21089;-68
2022/01/02 05:46:58;;;;;;;16.33;12.47;;;11.50;99.90;;;;;;5059239;28;20550;-68
2022/01/02 05:49:26;;;;;;;15.20;11.57;;;11.50;99.90;;;;;;5059140;28;20953;-68
2022/01/02 05:51:54;;;;;;;14.40;11.60;;;11.40;99.90;;;;;;5059755;28;20436;-67
2022/01/02 05:54:22;;;;;;;16.03;12.37;;;11.40;99.90;;;;;;5059103;28;20435;-67
2022/01/02 05:56:50;;;;;;;18.47;11.57;;;11.40;99.90;;;;;;5058884;28;20554;-67
2022/01/02 05:59:20;;;;;;;15.20;12.00;;;11.40;99.90;;;;;;5059337;28;20479;-69
2022/01/02 06:01:47;;;;;;;15.67;11.37;;;11.40;99.90;;;;;;5059069;28;20521;-69
2022/01/02 06:04:15;;;;;;;13.40;11.40;;;11.40;99.90;;;;;;5059324;28;20474;-69
2022/01/02 06:06:44;;;;;;;15.70;10.67;;;11.40;99.90;;;;;;5058803;28;20467;-70
2022/01/02 06:09:12;;;;;;;16.47;10.63;;;11.40;99.90;;;;;;5058733;28;20570;-69
2022/01/02 06:11:40;;;;;;;13.67;10.40;;;11.50;99.90;;;;;;5058969;28;20534;-70
2022/01/02 06:14:07;;;;;;;11.20;10.00;;;11.50;99.90;;;;;;5058813;28;20526;-70
2022/01/02 06:16:36;;;;;;;20.83;11.00;;;11.60;99.90;;;;;;5058319;28;20534;-70
2022/01/02 06:19:04;;;;;;;15.40;10.43;;;11.70;99.90;;;;;;5058507;28;20435;-69
2022/01/02 06:21:32;;;;;;;17.97;11.63;;;11.70;99.90;;;;;;5058903;28;20530;-69
2022/01/02 06:24:00;;;;;;;11.43;10.33;;;11.70;99.90;;;;;;5058260;28;20602;-70
2022/01/02 06:26:28;;;;;;;14.97;11.00;;;11.80;99.90;;;;;;5058608;28;20539;-71
2022/01/02 06:28:55;;;;;;;17.23;11.07;;;11.80;99.90;;;;;;5058661;28;21054;-71
2022/01/02 06:31:23;;;;;;;11.33;8.87;;;11.80;99.90;;;;;;5058759;28;20530;-71
2022/01/02 06:33:52;;;;;;;20.50;9.90;;;11.80;99.90;;;;;;5058357;28;20522;-70
2022/01/02 06:36:20;;;;;;;14.43;8.67;;;11.70;99.90;;;;;;5058470;28;20766;-69
2022/01/02 06:38:48;;;;;;;13.47;9.60;;;11.70;99.90;;;;;;5058470;28;20530;-70
2022/01/02 06:41:16;;;;;;;10.03;8.90;;;11.80;99.90;;;;;;5058548;28;20518;-70
2022/01/02 06:43:44;;;;;;;20.03;10.73;;;11.70;99.90;;;;;;5057841;28;20478;-70
2022/01/02 06:46:13;;;;;;;11.60;10.03;;;11.70;99.90;;;;;;5059044;28;20455;-70
2022/01/02 06:48:41;;;;;;;12.93;9.43;;;11.70;99.90;;;;;;5058046;28;20971;-71
2022/01/02 06:51:10;;;;;;;13.63;8.60;;;11.70;99.90;;;;;;5058517;28;20681;-72
2022/01/02 06:53:38;;;;;;;14.77;9.63;;;11.70;99.90;;;;;;5059048;28;21144;-70
2022/01/02 06:56:05;;;;;;;12.70;8.90;;;11.70;99.90;;;;;;5058093;28;21007;-69
2022/01/02 06:58:38;;;;;;;10.20;8.80;;;11.70;99.90;;;;;;5058211;28;21143;-70
2022/01/02 07:01:06;;;;;;;12.80;8.47;;;11.60;99.90;;;;;;5058398;28;21053;-69
2022/01/02 07:03:34;;;;;;;14.77;7.80;;;11.60;99.90;;;;;;5057880;28;20473;-71
2022/01/02 07:06:02;;;;;;;10.30;7.47;;;11.50;99.90;;;;;;5058118;28;20455;-69
2022/01/02 07:08:32;;;;;;;10.20;7.67;;;11.50;99.90;;;;;;5058727;28;20493;-71
2022/01/02 07:11:00;;;;;;;12.40;7.57;;;11.50;99.90;;;;;;5058731;28;20558;-71
2022/01/02 07:13:28;;;;;;;11.60;7.70;;;11.50;99.90;;;;;;5057964;28;21048;-69
2022/01/02 07:15:56;;;;;;;8.80;7.77;;;11.50;99.90;;;;;;5057950;28;20455;-70
2022/01/02 07:18:24;;;;;;;12.33;8.57;;;11.60;99.90;;;;;;5061014;28;20445;-70
2022/01/02 07:20:51;;;;;;;10.87;8.33;;;11.60;99.90;;;;;;5064167;28;20609;-73
2022/01/02 07:23:19;;;;;;;11.03;7.70;;;11.60;99.90;;;;;;5068444;28;20529;-73
2022/01/02 07:25:48;;;;;;;12.83;8.60;;;11.60;99.90;;;;;;5065213;28;20586;-72
2022/01/02 07:28:16;;;;;;;10.17;7.93;;;11.60;99.90;;;;;;5071368;28;20518;-70
2022/01/02 07:30:44;;;;;;;13.13;8.43;;;11.60;99.90;;;;;;5067505;28;21186;-71
2022/01/02 07:33:12;;;;;;;11.77;9.43;;;11.60;99.90;;;;;;5064134;28;20538;-72
2022/01/02 07:35:40;;;;;;;14.37;9.70;;;11.60;99.90;;;;;;5063525;28;20554;-70
2022/01/02 07:38:28;;;;;;;19.33;10.13;;;11.50;99.90;;;;;;5068859;28;20823;-70
2022/01/02 07:40:57;;;;;;;11.40;9.60;;;11.50;99.90;;;;;;5082788;28;20492;-70
2022/01/02 07:43:25;;;;;;;13.97;10.50;;;11.50;99.90;;;;;;5082975;28;20490;-72
2022/01/02 07:45:53;;;;;;;17.13;10.87;;;11.50;99.90;;;;;;5088023;28;20537;-71
2022/01/02 07:48:22;;;;;;;15.90;10.23;;;11.50;99.90;;;;;;5094907;28;20434;-70
2022/01/02 07:50:49;;;;;;;16.73;11.70;;;11.40;99.90;;;;;;5087366;28;20514;-71
2022/01/02 07:53:17;;;;;;;12.20;9.67;;;11.50;99.90;;;;;;5083689;28;21010;-72
2022/01/02 07:55:45;;;;;;;11.33;9.80;;;11.50;99.90;;;;;;5085075;28;20557;-70
2022/01/02 07:58:14;;;;;;;15.43;8.80;;;11.50;99.90;;;;;;5086954;28;20588;-71
2022/01/02 08:00:42;;;;;;;14.43;10.60;;;11.60;99.90;;;;;;5083604;28;20438;-70
2022/01/02 08:03:10;;;;;;;13.53;9.20;;;11.60;99.90;;;;;;5083687;28;20527;-71
2022/01/02 08:05:40;;;;;;;19.10;9.67;;;11.60;99.90;;;;;;5083140;28;20529;-71
2022/01/02 08:08:07;;;;;;;16.80;9.30;;;11.70;99.90;;;;;;5082310;28;20526;-72
2022/01/02 08:10:38;;;;;;;13.07;9.80;;;11.70;99.90;;;;;;5081306;28;20537;-72
2022/01/02 08:13:06;;;;;;;14.73;9.70;;;11.70;99.90;;;;;;5081493;28;20461;-71
2022/01/02 08:15:35;;;;;;;12.00;9.20;;;11.70;99.90;;;;;;5081122;28;21257;-71
2022/01/02 08:18:03;;;;;;;14.57;8.50;;;11.70;99.90;;;;;;5080873;28;20431;-72
2022/01/02 08:20:30;;;;;;;16.57;9.10;;;11.80;99.90;;;;;;5080874;28;20561;-71
2022/01/02 08:22:58;;;;;;;14.17;9.60;;;11.80;99.90;;;;;;5081391;28;20534;-71
2022/01/02 08:25:26;;;;;;;14.17;8.40;;;11.80;99.90;;;;;;5080288;28;20488;-70
2022/01/02 08:27:54;;;;;;;11.93;7.57;;;11.80;99.90;;;;;;5081036;28;20440;-70
2022/01/02 08:30:22;;;;;;;15.00;9.27;;;11.90;99.90;;;;;;5080609;28;20438;-69
2022/01/02 08:32:52;;;;;;;15.00;8.90;;;11.90;99.90;;;;;;5081465;28;20442;-69
2022/01/02 08:35:19;;;;;;;10.60;8.33;;;11.90;99.90;;;;;;5080660;28;20522;-71
2022/01/02 08:37:47;;;;;;;12.40;8.00;;;11.90;99.90;;;;;;5080754;28;20549;-71
2022/01/02 08:40:15;;;;;;;15.07;8.07;;;11.90;99.90;;;;;;5080409;28;20474;-70
2022/01/02 08:42:43;;;;;;;9.87;7.40;;;11.90;99.90;;;;;;5080485;28;20463;-69
2022/01/02 08:45:11;;;;;;;13.23;8.00;;;11.90;99.90;;;;;;5080381;28;21036;-71
2022/01/02 08:47:39;;;;;;;13.07;7.77;;;12.00;99.90;;;;;;5081739;28;20442;-70
2022/01/02 08:50:09;;;;;;;9.57;7.30;;;11.90;99.90;;;;;;5080455;28;20657;-71
2022/01/02 08:52:37;;;;;;;13.90;7.00;;;11.90;99.90;;;;;;5080398;28;20517;-69
2022/01/02 08:55:05;;;;;;;11.57;7.43;;;11.90;99.90;;;;;;5080410;28;20431;-68
2022/01/02 08:57:33;;;;;;;10.93;7.00;;;12.00;99.90;;;;;;5080659;28;20529;-68
2022/01/02 09:00:01;;;;;;;13.23;7.67;;;12.00;99.90;;;;;;5080152;28;20538;-70
2022/01/02 09:02:29;;;;;;;11.27;7.23;;;12.00;99.90;;;;;;5080148;28;20442;-70
2022/01/02 09:04:57;;;;;;;9.23;6.40;;;12.10;99.90;;;;;;5079906;28;21029;-70
2022/01/02 09:07:26;;;;;;;8.43;6.20;;;12.10;99.90;;;;;;5079777;28;20461;-69
2022/01/02 09:09:54;;;;;;;7.30;6.33;;;12.00;99.90;;;;;;5079860;28;20520;-69
2022/01/02 09:12:25;;;;;;;9.77;6.43;;;12.10;99.90;;;;;;5079550;28;20442;-72
2022/01/02 09:14:52;;;;;;;11.33;6.80;;;12.20;99.90;;;;;;5080187;28;20522;-70
2022/01/02 09:17:20;;;;;;;12.70;6.60;;;12.20;99.90;;;;;;5079701;28;20533;-71
2022/01/02 09:19:51;;;;;;;11.90;6.40;;;12.20;99.90;;;;;;5079897;28;20445;-70
2022/01/02 09:22:20;;;;;;;11.13;6.80;;;12.20;99.90;;;;;;5079744;28;20492;-70
2022/01/02 09:24:49;;;;;;;7.83;6.90;;;12.20;99.90;;;;;;5068927;28;20475;-72
2022/01/02 09:27:17;;;;;;;12.00;6.10;;;12.20;99.90;;;;;;5059269;28;21163;-75
2022/01/02 09:29:44;;;;;;;6.70;5.43;;;12.20;99.90;;;;;;5060026;28;20506;-70
2022/01/02 09:32:12;;;;;;;14.73;7.93;;;12.20;99.90;;;;;;5059290;28;20873;-70
2022/01/02 09:34:40;;;;;;;12.80;5.57;;;12.20;99.90;;;;;;5060033;28;20506;-73
2022/01/02 09:37:08;;;;;;;8.43;5.53;;;12.30;99.90;;;;;;5058685;28;20550;-71
2022/01/02 09:39:36;;;;;;;7.17;5.67;;;12.20;99.90;;;;;;5059565;28;20443;-72
2022/01/02 09:42:12;;;;;;;8.33;5.67;;;12.30;99.90;;;;;;5059211;28;20442;-71
2022/01/02 09:44:40;;;;;;;13.37;5.20;;;12.30;99.90;;;;;;5061649;28;20559;-71
2022/01/02 09:47:10;;;;;;;9.33;5.00;;;12.30;99.90;;;;;;5079870;28;20467;-71
2022/01/02 09:49:39;;;;;;;7.20;4.23;;;12.30;99.90;;;;;;5079622;28;21145;-71
2022/01/02 09:52:08;;;;;;;8.13;5.00;;;12.30;99.90;;;;;;5079502;28;20442;-72
2022/01/02 09:54:36;;;;;;;12.40;5.27;;;12.30;99.90;;;;;;5079085;28;20675;-73
2022/01/02 09:57:04;;;;;;;12.40;6.50;;;12.30;99.90;;;;;;5080042;28;21053;-73
2022/01/02 09:59:34;;;;;;;16.37;5.93;;;12.30;99.90;;;;;;5082125;28;20584;-72
2022/01/02 10:02:03;;;;;;;6.87;4.17;;;12.30;99.90;;;;;;5096491;28;20526;-71
2022/01/02 10:04:33;;;;;;;13.07;5.20;;;12.30;99.90;;;;;;5092725;28;21105;-72
2022/01/02 10:07:00;;;;;;;7.50;4.90;;;12.30;99.90;;;;;;5079579;28;20469;-73
2022/01/02 10:09:33;;;;;;;15.20;4.97;;;12.20;99.90;;;;;;5080022;28;20439;-72
2022/01/02 10:12:26;;;;;;;7.87;4.47;;;12.30;99.90;;;;;;5080397;28;20476;-70
2022/01/02 10:15:15;;;;;;;8.17;4.20;;;12.30;99.90;;;;;;5079071;28;20451;-71
2022/01/02 10:17:54;;;;;;;7.57;4.60;;;12.30;99.90;;;;;;5079509;28;20445;-71
2022/01/02 10:20:24;;;;;;;15.10;5.50;;;12.40;99.90;;;;;;5078912;28;21152;-71
2022/01/02 10:23:19;;;;;;;10.37;6.17;;;12.60;99.90;;;;;;5079358;28;20514;-72
2022/01/02 10:25:52;;;;;;;6.20;4.67;;;12.80;99.90;;;;;;5078799;28;20514;-74
2022/01/02 10:28:31;;;;;;;5.73;3.93;;;12.90;99.90;;;;;;5079168;28;20466;-71
2022/01/02 10:31:04;;;;;;;5.37;3.83;;;13.00;99.90;;;;;;5078842;28;20426;-71
2022/01/02 10:33:47;;;;;;;7.33;4.37;;;13.00;99.90;;;;;;5078344;28;20702;-72
2022/01/02 10:36:15;;;;;;;6.93;4.50;;;13.10;99.90;;;;;;5077992;28;20475;-71
2022/01/02 10:39:04;;;;;;;6.03;4.37;;;13.20;99.90;;;;;;5079044;28;20617;-72
2022/01/02 10:41:35;;;;;;;5.53;3.70;;;13.30;99.90;;;;;;5080067;28;20529;-71
2022/01/02 10:44:26;;;;;;;4.00;3.63;;;13.30;99.90;;;;;;5079527;28;20430;-73
2022/01/02 10:47:11;;;;;;;10.50;4.70;;;13.30;99.90;;;;;;5079090;28;20569;-73
2022/01/02 10:49:54;;;;;;;7.27;3.80;;;13.30;99.90;;;;;;5080244;28;20517;-72
2022/01/02 10:52:25;;;;;;;5.97;3.60;;;13.30;99.90;;;;;;5078369;28;20507;-74
2022/01/02 10:54:52;;;;;;;8.40;3.53;;;13.30;99.90;;;;;;5079695;28;20454;-71
2022/01/02 10:57:21;;;;;;;3.93;3.60;;;13.30;99.90;;;;;;5079540;28;21178;-72
2022/01/02 10:59:49;;;;;;;7.30;4.17;;;13.30;99.90;;;;;;5079563;28;20528;-71
2022/01/02 11:02:18;;;;;;;5.67;3.80;;;13.30;99.90;;;;;;5080527;28;20942;-71
2022/01/02 11:04:56;;;;;;;7.87;4.23;;;13.30;99.90;;;;;;5079808;28;20473;-71
2022/01/02 11:07:26;;;;;;;5.90;3.87;;;13.20;99.90;;;;;;5078711;28;20449;-71
2022/01/02 11:09:55;;;;;;;7.53;4.07;;;13.20;99.90;;;;;;5079532;28;20439;-71
2022/01/02 11:12:26;;;;;;;4.97;3.87;;;13.10;99.90;;;;;;5079173;28;20448;-71
2022/01/02 11:14:55;;;;;;;7.20;3.70;;;13.10;99.90;;;;;;5078388;28;20438;-71
2022/01/02 11:17:24;;;;;;;4.20;3.40;;;13.10;99.90;;;;;;5078659;28;20450;-72
2022/01/02 11:19:52;;;;;;;5.27;3.20;;;13.10;99.90;;;;;;5079127;28;20442;-73
2022/01/02 11:22:26;;;;;;;6.40;4.13;;;13.10;99.90;;;;;;5078376;28;20933;-73
2022/01/02 11:25:02;;;;;;;5.30;4.63;;;13.10;99.90;;;;;;5077912;28;20478;-72
2022/01/02 11:27:40;;;;;;;7.47;4.43;;;13.10;99.90;;;;;;5078484;28;20648;-72
2022/01/02 11:30:40;;;;;;;5.20;4.17;;;13.10;99.90;;;;;;5071849;28;20451;-72
2022/01/02 11:33:12;;;;;;;6.37;3.60;;;13.10;99.90;;;;;;5037581;28;20435;-72
2022/01/02 11:35:43;;;;;;;5.00;3.90;;;13.20;99.90;;;;;;5038312;28;20550;-72
2022/01/02 11:38:11;;;;;;;7.53;3.60;;;13.20;99.90;;;;;;5065718;28;20495;-73
2022/01/02 11:40:51;;;;;;;8.07;4.80;;;13.20;99.90;;;;;;5064112;28;20476;-71
2022/01/02 11:43:55;;;;;;;6.43;4.13;;;13.20;99.90;;;;;;5077596;28;20439;-72
2022/01/02 11:46:28;;;;;;;7.70;3.70;;;13.20;99.90;;;;;;5056350;28;20573;-71
2022/01/02 11:49:20;;;;;;;4.63;4.23;;;13.20;99.90;;;;;;5058337;28;20492;-75
2022/01/02 11:52:21;;;;;;;6.70;4.63;;;13.20;99.90;;;;;;5060035;28;20530;-78
2022/01/02 11:54:57;;;;;;;8.43;4.90;;;13.20;99.90;;;;;;5077324;28;20438;-73
2022/01/02 11:57:52;;;;;;;8.10;5.47;;;13.20;99.90;;;;;;5065651;28;20499;-72
2022/01/02 12:00:40;;;;;;;11.17;6.47;;;13.20;99.90;;;;;;5058434;28;20442;-73
2022/01/02 12:03:41;;;;;;;9.60;5.30;;;13.10;99.90;;;;;;5058031;28;20842;-72
2022/01/02 12:06:32;;;;;;;4.80;3.70;;;13.00;99.90;;;;;;5061716;28;20505;-72
2022/01/02 12:09:02;;;;;;;4.87;4.03;;;13.00;99.90;;;;;;5058981;28;20546;-72
2022/01/02 12:11:44;;;;;;;5.53;4.30;;;13.00;99.90;;;;;;5054620;28;20563;-72
2022/01/02 12:14:19;;;;;;;4.97;3.57;;;12.90;99.90;;;;;;5058294;28;20463;-76
2022/01/02 12:17:10;;;;;;;5.20;4.10;;;12.90;99.90;;;;;;5060383;28;20607;-74
2022/01/02 12:19:59;;;;;;;8.73;4.20;;;12.90;99.90;;;;;;5060859;28;20535;-74
2022/01/02 12:22:43;;;;;;;8.80;4.43;;;12.80;99.90;;;;;;5041624;28;20440;-75
2022/01/02 12:25:13;;;;;;;5.63;3.87;;;12.80;99.90;;;;;;5054094;28;20446;-73
2022/01/02 12:27:55;;;;;;;7.77;4.30;;;12.80;99.90;;;;;;5061934;28;21201;-75
2022/01/02 12:30:23;;;;;;;8.50;4.00;;;12.90;99.90;;;;;;5062046;28;20509;-74
2022/01/02 12:32:51;;;;;;;7.30;4.37;;;12.90;99.90;;;;;;5077077;28;20988;-76
2022/01/02 12:35:20;;;;;;;7.20;4.27;;;13.00;99.90;;;;;;5083480;28;20502;-76
2022/01/02 12:38:02;;;;;;;8.10;4.23;;;12.90;99.90;;;;;;5063491;28;20459;-74
2022/01/02 12:40:37;;;;;;;10.33;6.07;;;13.00;99.90;;;;;;5062208;28;20442;-73
2022/01/02 12:43:05;;;;;;;12.33;5.43;;;13.00;99.90;;;;;;5062058;28;20439;-73
2022/01/02 12:45:33;;;;;;;6.90;4.97;;;13.10;99.90;;;;;;5072914;28;20460;-73
2022/01/02 12:48:01;;;;;;;6.37;5.43;;;13.10;99.90;;;;;;5063717;28;20486;-72
2022/01/02 12:50:31;;;;;;;9.50;4.73;;;13.10;99.90;;;;;;5061511;28;20985;-74
2022/01/02 12:53:01;;;;;;;8.30;5.40;;;13.00;99.90;;;;;;5061546;28;20455;-75
2022/01/02 12:55:30;;;;;;;12.23;5.30;;;13.00;99.90;;;;;;5061771;28;20720;-73
2022/01/02 12:58:05;;;;;;;10.70;5.33;;;13.00;99.90;;;;;;5067626;28;20491;-73
2022/01/02 13:00:34;;;;;;;12.90;6.57;;;13.00;99.90;;;;;;5069270;28;20644;-74
2022/01/02 13:03:02;;;;;;;7.67;4.80;;;13.00;99.90;;;;;;5067121;28;20481;-75
2022/01/02 13:05:30;;;;;;;7.57;5.10;;;13.00;99.90;;;;;;5061222;28;21035;-75